sensor_id;sensor_type;location;lat;lon;timestamp;P1;durP1;ratioP1;P2;durP2;ratioP2
65715;SDS011;63484;52.054;8.518;2023-07-02T00:03:59;11.90;;;5.43;;
65715;SDS011;63484;52.054;8.518;2023-07-02T00:09:05;11.18;;;5.63;;
65715;SDS011;63484;52.054;8.518;2023-07-02T00:14:07;11.63;;;6.18;;
65715;SDS011;63484;52.054;8.518;2023-07-02T00:19:09;12.98;;;7.18;;
65715;SDS011;63484;52.054;8.518;2023-07-02T00:24:12;10.82;;;6.20;;
65715;SDS011;63484;52.054;8.518;2023-07-02T00:29:13;9.97;;;6.37;;
65715;SDS011;63484;52.054;8.518;2023-07-02T00:34:15;11.52;;;6.70;;
65715;SDS011;63484;52.054;8.518;2023-07-02T00:39:18;11.90;;;6.57;;
65715;SDS011;63484;52.054;8.518;2023-07-02T00:44:20;10.77;;;7.20;;
65715;SDS011;63484;52.054;8.518;2023-07-02T00:49:22;8.93;;;5.97;;
65715;SDS011;63484;52.054;8.518;2023-07-02T00:54:25;10.95;;;6.47;;
65715;SDS011;63484;52.054;8.518;2023-07-02T00:59:29;10.93;;;5.65;;
65715;SDS011;63484;52.054;8.518;2023-07-02T01:04:31;10.55;;;5.70;;
65715;SDS011;63484;52.054;8.518;2023-07-02T01:09:34;9.57;;;5.78;;
65715;SDS011;63484;52.054;8.518;2023-07-02T01:14:38;8.70;;;5.60;;
65715;SDS011;63484;52.054;8.518;2023-07-02T01:19:44;10.15;;;5.28;;
65715;SDS011;63484;52.054;8.518;2023-07-02T01:24:51;6.30;;;5.22;;
65715;SDS011;63484;52.054;8.518;2023-07-02T01:29:54;7.55;;;5.43;;
65715;SDS011;63484;52.054;8.518;2023-07-02T01:34:57;9.10;;;5.25;;
65715;SDS011;63484;52.054;8.518;2023-07-02T01:40:01;9.27;;;5.80;;
65715;SDS011;63484;52.054;8.518;2023-07-02T01:45:03;11.75;;;5.95;;
65715;SDS011;63484;52.054;8.518;2023-07-02T01:50:07;8.20;;;6.07;;
65715;SDS011;63484;52.054;8.518;2023-07-02T01:55:10;9.35;;;6.55;;
65715;SDS011;63484;52.054;8.518;2023-07-02T02:00:12;9.93;;;6.97;;
65715;SDS011;63484;52.054;8.518;2023-07-02T02:05:18;12.10;;;6.70;;
65715;SDS011;63484;52.054;8.518;2023-07-02T02:10:22;12.38;;;7.07;;
65715;SDS011;63484;52.054;8.518;2023-07-02T02:15:24;10.63;;;7.07;;
65715;SDS011;63484;52.054;8.518;2023-07-02T02:20:27;11.25;;;7.22;;
65715;SDS011;63484;52.054;8.518;2023-07-02T02:25:29;12.20;;;7.40;;
65715;SDS011;63484;52.054;8.518;2023-07-02T02:30:35;12.88;;;7.63;;
65715;SDS011;63484;52.054;8.518;2023-07-02T02:35:38;13.18;;;8.18;;
65715;SDS011;63484;52.054;8.518;2023-07-02T02:40:40;11.87;;;8.10;;
65715;SDS011;63484;52.054;8.518;2023-07-02T02:45:43;17.25;;;8.50;;
65715;SDS011;63484;52.054;8.518;2023-07-02T02:50:47;13.02;;;8.93;;
65715;SDS011;63484;52.054;8.518;2023-07-02T02:55:49;17.90;;;9.20;;
65715;SDS011;63484;52.054;8.518;2023-07-02T03:00:50;13.52;;;8.43;;
65715;SDS011;63484;52.054;8.518;2023-07-02T03:05:54;17.15;;;9.55;;
65715;SDS011;63484;52.054;8.518;2023-07-02T03:10:55;18.38;;;9.68;;
65715;SDS011;63484;52.054;8.518;2023-07-02T03:15:57;17.67;;;9.70;;
65715;SDS011;63484;52.054;8.518;2023-07-02T03:21:01;13.40;;;9.68;;
65715;SDS011;63484;52.054;8.518;2023-07-02T03:26:03;19.63;;;10.30;;
65715;SDS011;63484;52.054;8.518;2023-07-02T03:31:05;18.80;;;10.13;;
65715;SDS011;63484;52.054;8.518;2023-07-02T03:36:08;16.58;;;9.48;;
65715;SDS011;63484;52.054;8.518;2023-07-02T03:41:09;18.58;;;10.13;;
65715;SDS011;63484;52.054;8.518;2023-07-02T03:46:13;22.17;;;9.45;;
65715;SDS011;63484;52.054;8.518;2023-07-02T03:51:17;21.98;;;11.10;;
65715;SDS011;63484;52.054;8.518;2023-07-02T03:56:18;18.10;;;10.55;;
65715;SDS011;63484;52.054;8.518;2023-07-02T04:01:20;22.70;;;11.77;;
65715;SDS011;63484;52.054;8.518;2023-07-02T04:06:23;22.88;;;12.10;;
65715;SDS011;63484;52.054;8.518;2023-07-02T04:11:25;19.65;;;9.65;;
65715;SDS011;63484;52.054;8.518;2023-07-02T04:16:27;16.27;;;7.03;;
65715;SDS011;63484;52.054;8.518;2023-07-02T04:21:30;13.88;;;5.45;;
65715;SDS011;63484;52.054;8.518;2023-07-02T04:26:31;17.63;;;5.33;;
65715;SDS011;63484;52.054;8.518;2023-07-02T04:31:33;8.93;;;4.85;;
65715;SDS011;63484;52.054;8.518;2023-07-02T04:36:36;13.30;;;5.55;;
65715;SDS011;63484;52.054;8.518;2023-07-02T04:41:38;12.47;;;5.47;;
65715;SDS011;63484;52.054;8.518;2023-07-02T04:46:39;15.20;;;5.30;;
65715;SDS011;63484;52.054;8.518;2023-07-02T04:51:42;10.80;;;4.47;;
65715;SDS011;63484;52.054;8.518;2023-07-02T04:56:44;12.18;;;5.20;;
65715;SDS011;63484;52.054;8.518;2023-07-02T05:01:46;12.73;;;4.75;;
65715;SDS011;63484;52.054;8.518;2023-07-02T05:06:49;16.67;;;5.40;;
65715;SDS011;63484;52.054;8.518;2023-07-02T05:11:51;13.13;;;4.95;;
65715;SDS011;63484;52.054;8.518;2023-07-02T05:16:52;12.18;;;4.90;;
65715;SDS011;63484;52.054;8.518;2023-07-02T05:21:55;11.60;;;4.30;;
65715;SDS011;63484;52.054;8.518;2023-07-02T05:26:57;11.07;;;4.80;;
65715;SDS011;63484;52.054;8.518;2023-07-02T05:31:59;13.98;;;4.68;;
65715;SDS011;63484;52.054;8.518;2023-07-02T05:37:02;14.15;;;4.90;;
65715;SDS011;63484;52.054;8.518;2023-07-02T05:42:04;18.10;;;4.97;;
65715;SDS011;63484;52.054;8.518;2023-07-02T05:47:05;19.33;;;4.80;;
65715;SDS011;63484;52.054;8.518;2023-07-02T05:52:09;19.65;;;5.10;;
65715;SDS011;63484;52.054;8.518;2023-07-02T05:57:10;20.13;;;5.32;;
65715;SDS011;63484;52.054;8.518;2023-07-02T06:02:12;21.17;;;5.32;;
65715;SDS011;63484;52.054;8.518;2023-07-02T06:07:15;13.70;;;5.20;;
65715;SDS011;63484;52.054;8.518;2023-07-02T06:12:17;16.50;;;5.28;;
65715;SDS011;63484;52.054;8.518;2023-07-02T06:17:18;13.52;;;5.55;;
65715;SDS011;63484;52.054;8.518;2023-07-02T06:22:24;19.92;;;5.43;;
65715;SDS011;63484;52.054;8.518;2023-07-02T06:27:25;15.07;;;5.15;;
65715;SDS011;63484;52.054;8.518;2023-07-02T06:32:27;18.80;;;5.72;;
65715;SDS011;63484;52.054;8.518;2023-07-02T06:37:30;20.25;;;5.68;;
65715;SDS011;63484;52.054;8.518;2023-07-02T06:42:32;22.70;;;5.53;;
65715;SDS011;63484;52.054;8.518;2023-07-02T06:47:36;16.67;;;5.18;;
65715;SDS011;63484;52.054;8.518;2023-07-02T06:52:39;19.98;;;5.10;;
65715;SDS011;63484;52.054;8.518;2023-07-02T06:57:43;14.77;;;5.13;;
65715;SDS011;63484;52.054;8.518;2023-07-02T07:02:45;15.13;;;5.30;;
65715;SDS011;63484;52.054;8.518;2023-07-02T07:07:48;17.38;;;5.78;;
65715;SDS011;63484;52.054;8.518;2023-07-02T07:12:50;18.45;;;6.18;;
65715;SDS011;63484;52.054;8.518;2023-07-02T07:17:52;17.03;;;6.07;;
65715;SDS011;63484;52.054;8.518;2023-07-02T07:22:55;15.00;;;5.70;;
65715;SDS011;63484;52.054;8.518;2023-07-02T07:27:57;14.68;;;5.75;;
65715;SDS011;63484;52.054;8.518;2023-07-02T07:32:59;19.92;;;5.53;;
65715;SDS011;63484;52.054;8.518;2023-07-02T07:38:02;12.98;;;5.78;;
65715;SDS011;63484;52.054;8.518;2023-07-02T07:43:04;17.48;;;6.03;;
65715;SDS011;63484;52.054;8.518;2023-07-02T07:48:05;13.30;;;5.13;;
65715;SDS011;63484;52.054;8.518;2023-07-02T07:53:09;15.30;;;5.53;;
65715;SDS011;63484;52.054;8.518;2023-07-02T07:58:10;16.73;;;5.82;;
65715;SDS011;63484;52.054;8.518;2023-07-02T08:03:14;18.02;;;5.75;;
65715;SDS011;63484;52.054;8.518;2023-07-02T08:08:17;13.23;;;5.70;;
65715;SDS011;63484;52.054;8.518;2023-07-02T08:13:19;16.70;;;6.22;;
65715;SDS011;63484;52.054;8.518;2023-07-02T08:18:23;14.45;;;5.70;;
65715;SDS011;63484;52.054;8.518;2023-07-02T08:23:26;17.47;;;6.23;;
65715;SDS011;63484;52.054;8.518;2023-07-02T08:28:28;15.35;;;5.82;;
65715;SDS011;63484;52.054;8.518;2023-07-02T08:33:30;17.27;;;6.28;;
65715;SDS011;63484;52.054;8.518;2023-07-02T08:38:33;20.42;;;6.05;;
65715;SDS011;63484;52.054;8.518;2023-07-02T08:43:35;17.05;;;5.30;;
65715;SDS011;63484;52.054;8.518;2023-07-02T08:48:37;15.05;;;5.38;;
65715;SDS011;63484;52.054;8.518;2023-07-02T08:53:40;12.30;;;5.20;;
65715;SDS011;63484;52.054;8.518;2023-07-02T08:58:44;11.80;;;4.95;;
65715;SDS011;63484;52.054;8.518;2023-07-02T09:03:46;15.80;;;5.47;;
65715;SDS011;63484;52.054;8.518;2023-07-02T09:08:49;11.13;;;4.55;;
65715;SDS011;63484;52.054;8.518;2023-07-02T09:13:51;11.30;;;4.50;;
65715;SDS011;63484;52.054;8.518;2023-07-02T09:18:59;21.35;;;4.70;;
65715;SDS011;63484;52.054;8.518;2023-07-02T09:24:12;13.18;;;4.80;;
65715;SDS011;63484;52.054;8.518;2023-07-02T09:29:16;11.10;;;5.15;;
65715;SDS011;63484;52.054;8.518;2023-07-02T09:34:18;15.52;;;4.60;;
65715;SDS011;63484;52.054;8.518;2023-07-02T09:39:25;12.20;;;4.80;;
65715;SDS011;63484;52.054;8.518;2023-07-02T09:44:28;15.63;;;4.32;;
65715;SDS011;63484;52.054;8.518;2023-07-02T09:49:31;15.07;;;4.73;;
65715;SDS011;63484;52.054;8.518;2023-07-02T09:54:36;13.50;;;4.40;;
65715;SDS011;63484;52.054;8.518;2023-07-02T09:59:38;10.98;;;4.07;;
65715;SDS011;63484;52.054;8.518;2023-07-02T10:04:41;13.75;;;4.90;;
65715;SDS011;63484;52.054;8.518;2023-07-02T10:09:45;10.13;;;4.38;;
65715;SDS011;63484;52.054;8.518;2023-07-02T10:19:50;17.38;;;4.88;;
65715;SDS011;63484;52.054;8.518;2023-07-02T10:24:57;12.45;;;4.25;;
65715;SDS011;63484;52.054;8.518;2023-07-02T10:30:00;9.32;;;4.18;;
65715;SDS011;63484;52.054;8.518;2023-07-02T10:35:12;11.88;;;4.40;;
65715;SDS011;63484;52.054;8.518;2023-07-02T10:40:16;13.13;;;4.13;;
65715;SDS011;63484;52.054;8.518;2023-07-02T10:45:18;9.95;;;4.15;;
65715;SDS011;63484;52.054;8.518;2023-07-02T10:50:21;9.73;;;4.37;;
65715;SDS011;63484;52.054;8.518;2023-07-02T10:55:25;13.10;;;4.20;;
65715;SDS011;63484;52.054;8.518;2023-07-02T11:00:27;19.20;;;5.13;;
65715;SDS011;63484;52.054;8.518;2023-07-02T11:05:31;9.23;;;4.20;;
65715;SDS011;63484;52.054;8.518;2023-07-02T11:10:34;9.73;;;4.20;;
65715;SDS011;63484;52.054;8.518;2023-07-02T11:15:35;14.82;;;4.78;;
65715;SDS011;63484;52.054;8.518;2023-07-02T11:20:38;14.30;;;4.68;;
65715;SDS011;63484;52.054;8.518;2023-07-02T11:25:41;17.33;;;4.28;;
65715;SDS011;63484;52.054;8.518;2023-07-02T11:30:45;11.32;;;4.25;;
65715;SDS011;63484;52.054;8.518;2023-07-02T11:35:47;12.13;;;4.68;;
65715;SDS011;63484;52.054;8.518;2023-07-02T11:40:50;21.23;;;4.97;;
65715;SDS011;63484;52.054;8.518;2023-07-02T11:45:51;11.40;;;5.03;;
65715;SDS011;63484;52.054;8.518;2023-07-02T11:50:53;9.63;;;4.32;;
65715;SDS011;63484;52.054;8.518;2023-07-02T11:55:56;10.15;;;4.18;;
65715;SDS011;63484;52.054;8.518;2023-07-02T12:00:58;14.27;;;4.80;;
65715;SDS011;63484;52.054;8.518;2023-07-02T12:06:00;10.90;;;4.13;;
65715;SDS011;63484;52.054;8.518;2023-07-02T12:11:03;10.32;;;4.50;;
65715;SDS011;63484;52.054;8.518;2023-07-02T12:16:05;10.90;;;4.10;;
65715;SDS011;63484;52.054;8.518;2023-07-02T12:21:06;12.73;;;4.55;;
65715;SDS011;63484;52.054;8.518;2023-07-02T12:26:09;13.25;;;4.20;;
65715;SDS011;63484;52.054;8.518;2023-07-02T12:31:11;11.32;;;4.57;;
65715;SDS011;63484;52.054;8.518;2023-07-02T12:36:13;12.68;;;4.25;;
65715;SDS011;63484;52.054;8.518;2023-07-02T12:41:16;10.82;;;4.10;;
65715;SDS011;63484;52.054;8.518;2023-07-02T12:46:18;16.38;;;4.50;;
65715;SDS011;63484;52.054;8.518;2023-07-02T12:51:20;8.93;;;3.70;;
65715;SDS011;63484;52.054;8.518;2023-07-02T12:56:28;9.57;;;3.45;;
65715;SDS011;63484;52.054;8.518;2023-07-02T13:01:29;8.85;;;3.47;;
65715;SDS011;63484;52.054;8.518;2023-07-02T13:06:31;11.93;;;3.70;;
65715;SDS011;63484;52.054;8.518;2023-07-02T13:11:36;11.63;;;3.75;;
65715;SDS011;63484;52.054;8.518;2023-07-02T13:16:38;9.15;;;3.60;;
65715;SDS011;63484;52.054;8.518;2023-07-02T13:21:40;9.43;;;3.67;;
65715;SDS011;63484;52.054;8.518;2023-07-02T13:26:43;10.43;;;3.80;;
65715;SDS011;63484;52.054;8.518;2023-07-02T13:31:46;11.90;;;3.53;;
65715;SDS011;63484;52.054;8.518;2023-07-02T13:36:47;9.23;;;3.30;;
65715;SDS011;63484;52.054;8.518;2023-07-02T13:41:51;13.75;;;4.18;;
65715;SDS011;63484;52.054;8.518;2023-07-02T13:51:54;7.53;;;3.45;;
65715;SDS011;63484;52.054;8.518;2023-07-02T13:56:57;10.35;;;3.95;;
65715;SDS011;63484;52.054;8.518;2023-07-02T14:02:00;10.57;;;3.60;;
65715;SDS011;63484;52.054;8.518;2023-07-02T14:07:02;6.72;;;3.35;;
65715;SDS011;63484;52.054;8.518;2023-07-02T14:12:05;7.57;;;3.45;;
65715;SDS011;63484;52.054;8.518;2023-07-02T14:17:09;12.90;;;4.33;;
65715;SDS011;63484;52.054;8.518;2023-07-02T14:22:10;9.70;;;3.90;;
65715;SDS011;63484;52.054;8.518;2023-07-02T14:27:12;11.25;;;4.30;;
65715;SDS011;63484;52.054;8.518;2023-07-02T14:32:15;11.85;;;3.92;;
65715;SDS011;63484;52.054;8.518;2023-07-02T14:42:19;10.68;;;3.72;;
65715;SDS011;63484;52.054;8.518;2023-07-02T14:47:22;8.35;;;3.60;;
65715;SDS011;63484;52.054;8.518;2023-07-02T14:52:23;8.57;;;4.15;;
65715;SDS011;63484;52.054;8.518;2023-07-02T14:57:25;11.10;;;3.70;;
65715;SDS011;63484;52.054;8.518;2023-07-02T15:02:28;12.55;;;3.72;;
65715;SDS011;63484;52.054;8.518;2023-07-02T15:07:30;8.82;;;3.92;;
65715;SDS011;63484;52.054;8.518;2023-07-02T15:12:32;11.48;;;3.72;;
65715;SDS011;63484;52.054;8.518;2023-07-02T15:17:35;9.85;;;3.92;;
65715;SDS011;63484;52.054;8.518;2023-07-02T15:22:37;10.35;;;4.65;;
65715;SDS011;63484;52.054;8.518;2023-07-02T15:27:38;15.73;;;6.43;;
65715;SDS011;63484;52.054;8.518;2023-07-02T15:32:44;7.60;;;3.45;;
65715;SDS011;63484;52.054;8.518;2023-07-02T15:37:46;13.02;;;4.82;;
65715;SDS011;63484;52.054;8.518;2023-07-02T15:42:47;11.93;;;4.50;;
65715;SDS011;63484;52.054;8.518;2023-07-02T15:47:54;9.93;;;4.07;;
65715;SDS011;63484;52.054;8.518;2023-07-02T15:52:56;11.43;;;4.78;;
65715;SDS011;63484;52.054;8.518;2023-07-02T15:57:58;15.57;;;4.65;;
65715;SDS011;63484;52.054;8.518;2023-07-02T16:03:01;11.73;;;4.63;;
65715;SDS011;63484;52.054;8.518;2023-07-02T16:08:03;9.95;;;3.75;;
65715;SDS011;63484;52.054;8.518;2023-07-02T16:13:05;9.13;;;3.60;;
65715;SDS011;63484;52.054;8.518;2023-07-02T16:18:08;11.85;;;3.83;;
65715;SDS011;63484;52.054;8.518;2023-07-02T16:28:12;8.80;;;3.40;;
65715;SDS011;63484;52.054;8.518;2023-07-02T16:33:16;8.32;;;3.10;;
65715;SDS011;63484;52.054;8.518;2023-07-02T16:38:18;10.25;;;3.83;;
65715;SDS011;63484;52.054;8.518;2023-07-02T16:43:20;7.60;;;3.53;;
65715;SDS011;63484;52.054;8.518;2023-07-02T16:48:23;7.00;;;3.13;;
65715;SDS011;63484;52.054;8.518;2023-07-02T16:53:27;9.35;;;3.55;;
65715;SDS011;63484;52.054;8.518;2023-07-02T16:58:29;5.45;;;2.67;;
65715;SDS011;63484;52.054;8.518;2023-07-02T17:03:35;13.45;;;3.03;;
65715;SDS011;63484;52.054;8.518;2023-07-02T17:08:37;5.82;;;2.72;;
65715;SDS011;63484;52.054;8.518;2023-07-02T17:13:40;8.43;;;3.30;;
65715;SDS011;63484;52.054;8.518;2023-07-02T17:18:43;8.23;;;3.15;;
65715;SDS011;63484;52.054;8.518;2023-07-02T17:23:45;6.68;;;3.40;;
65715;SDS011;63484;52.054;8.518;2023-07-02T17:28:46;8.55;;;2.65;;
65715;SDS011;63484;52.054;8.518;2023-07-02T17:33:51;9.80;;;2.80;;
65715;SDS011;63484;52.054;8.518;2023-07-02T17:38:52;9.13;;;3.00;;
65715;SDS011;63484;52.054;8.518;2023-07-02T17:43:54;6.40;;;2.97;;
65715;SDS011;63484;52.054;8.518;2023-07-02T17:48:58;8.93;;;2.90;;
65715;SDS011;63484;52.054;8.518;2023-07-02T17:54:00;7.03;;;2.90;;
65715;SDS011;63484;52.054;8.518;2023-07-02T17:59:02;7.13;;;2.65;;
65715;SDS011;63484;52.054;8.518;2023-07-02T18:04:05;7.10;;;3.00;;
65715;SDS011;63484;52.054;8.518;2023-07-02T18:09:06;15.20;;;3.30;;
65715;SDS011;63484;52.054;8.518;2023-07-02T18:14:08;7.85;;;2.80;;
65715;SDS011;63484;52.054;8.518;2023-07-02T18:19:12;6.28;;;2.70;;
65715;SDS011;63484;52.054;8.518;2023-07-02T18:24:13;5.97;;;2.47;;
65715;SDS011;63484;52.054;8.518;2023-07-02T18:29:15;6.00;;;2.60;;
65715;SDS011;63484;52.054;8.518;2023-07-02T18:34:18;5.78;;;2.60;;
65715;SDS011;63484;52.054;8.518;2023-07-02T18:39:20;5.30;;;2.58;;
65715;SDS011;63484;52.054;8.518;2023-07-02T18:44:26;7.32;;;2.97;;
65715;SDS011;63484;52.054;8.518;2023-07-02T18:49:35;7.63;;;2.60;;
65715;SDS011;63484;52.054;8.518;2023-07-02T18:54:37;6.35;;;2.85;;
65715;SDS011;63484;52.054;8.518;2023-07-02T18:59:39;8.30;;;2.58;;
65715;SDS011;63484;52.054;8.518;2023-07-02T19:04:49;7.68;;;2.75;;
65715;SDS011;63484;52.054;8.518;2023-07-02T19:09:51;6.30;;;2.75;;
65715;SDS011;63484;52.054;8.518;2023-07-02T19:14:53;7.88;;;3.05;;
65715;SDS011;63484;52.054;8.518;2023-07-02T19:19:56;5.63;;;2.40;;
65715;SDS011;63484;52.054;8.518;2023-07-02T19:24:58;10.00;;;2.97;;
65715;SDS011;63484;52.054;8.518;2023-07-02T19:30:00;10.43;;;2.85;;
65715;SDS011;63484;52.054;8.518;2023-07-02T19:35:04;9.23;;;3.28;;
65715;SDS011;63484;52.054;8.518;2023-07-02T19:40:07;6.80;;;2.42;;
65715;SDS011;63484;52.054;8.518;2023-07-02T19:45:09;8.40;;;3.42;;
65715;SDS011;63484;52.054;8.518;2023-07-02T19:50:12;8.75;;;2.80;;
65715;SDS011;63484;52.054;8.518;2023-07-02T19:55:14;7.87;;;2.83;;
65715;SDS011;63484;52.054;8.518;2023-07-02T20:00:16;10.82;;;2.78;;
65715;SDS011;63484;52.054;8.518;2023-07-02T20:05:19;9.65;;;2.85;;
65715;SDS011;63484;52.054;8.518;2023-07-02T20:10:21;9.73;;;3.00;;
65715;SDS011;63484;52.054;8.518;2023-07-02T20:15:23;7.57;;;2.78;;
65715;SDS011;63484;52.054;8.518;2023-07-02T20:20:26;9.55;;;3.17;;
65715;SDS011;63484;52.054;8.518;2023-07-02T20:25:31;9.85;;;3.03;;
65715;SDS011;63484;52.054;8.518;2023-07-02T20:30:37;7.40;;;2.75;;
65715;SDS011;63484;52.054;8.518;2023-07-02T20:35:40;9.93;;;3.55;;
65715;SDS011;63484;52.054;8.518;2023-07-02T20:40:42;10.25;;;2.95;;
65715;SDS011;63484;52.054;8.518;2023-07-02T20:45:43;7.45;;;2.95;;
65715;SDS011;63484;52.054;8.518;2023-07-02T20:50:46;7.68;;;2.97;;
65715;SDS011;63484;52.054;8.518;2023-07-02T20:55:55;8.23;;;3.13;;
65715;SDS011;63484;52.054;8.518;2023-07-02T21:01:00;9.63;;;3.53;;
65715;SDS011;63484;52.054;8.518;2023-07-02T21:06:07;10.15;;;3.58;;
65715;SDS011;63484;52.054;8.518;2023-07-02T21:11:10;10.50;;;3.97;;
65715;SDS011;63484;52.054;8.518;2023-07-02T21:16:12;9.15;;;3.60;;
65715;SDS011;63484;52.054;8.518;2023-07-02T21:21:15;8.85;;;3.67;;
65715;SDS011;63484;52.054;8.518;2023-07-02T21:26:17;8.63;;;3.25;;
65715;SDS011;63484;52.054;8.518;2023-07-02T21:31:18;9.77;;;3.22;;
65715;SDS011;63484;52.054;8.518;2023-07-02T21:36:21;10.63;;;3.15;;
65715;SDS011;63484;52.054;8.518;2023-07-02T21:41:23;8.20;;;3.30;;
65715;SDS011;63484;52.054;8.518;2023-07-02T21:46:30;8.30;;;3.35;;
65715;SDS011;63484;52.054;8.518;2023-07-02T21:51:33;7.03;;;2.95;;
65715;SDS011;63484;52.054;8.518;2023-07-02T21:56:35;7.93;;;3.20;;
65715;SDS011;63484;52.054;8.518;2023-07-02T22:01:36;9.80;;;3.00;;
65715;SDS011;63484;52.054;8.518;2023-07-02T22:06:40;8.40;;;3.35;;
65715;SDS011;63484;52.054;8.518;2023-07-02T22:11:42;7.18;;;3.05;;
65715;SDS011;63484;52.054;8.518;2023-07-02T22:16:43;9.50;;;3.65;;
65715;SDS011;63484;52.054;8.518;2023-07-02T22:21:46;9.45;;;3.40;;
65715;SDS011;63484;52.054;8.518;2023-07-02T22:26:48;10.75;;;3.13;;
65715;SDS011;63484;52.054;8.518;2023-07-02T22:31:50;8.48;;;3.13;;
65715;SDS011;63484;52.054;8.518;2023-07-02T22:36:55;11.60;;;3.55;;
65715;SDS011;63484;52.054;8.518;2023-07-02T22:41:57;10.93;;;3.70;;
65715;SDS011;63484;52.054;8.518;2023-07-02T22:46:59;10.65;;;3.42;;
65715;SDS011;63484;52.054;8.518;2023-07-02T22:52:02;8.55;;;3.00;;
65715;SDS011;63484;52.054;8.518;2023-07-02T22:57:04;11.90;;;3.30;;
65715;SDS011;63484;52.054;8.518;2023-07-02T23:02:07;10.27;;;3.60;;
65715;SDS011;63484;52.054;8.518;2023-07-02T23:07:10;14.32;;;3.42;;
65715;SDS011;63484;52.054;8.518;2023-07-02T23:12:12;9.47;;;3.23;;
65715;SDS011;63484;52.054;8.518;2023-07-02T23:17:13;11.95;;;4.15;;
65715;SDS011;63484;52.054;8.518;2023-07-02T23:22:16;11.07;;;3.78;;
65715;SDS011;63484;52.054;8.518;2023-07-02T23:27:21;13.57;;;4.10;;
65715;SDS011;63484;52.054;8.518;2023-07-02T23:32:22;7.78;;;3.30;;
65715;SDS011;63484;52.054;8.518;2023-07-02T23:37:28;8.25;;;3.50;;
65715;SDS011;63484;52.054;8.518;2023-07-02T23:42:32;12.73;;;3.72;;
65715;SDS011;63484;52.054;8.518;2023-07-02T23:47:34;11.70;;;3.90;;
65715;SDS011;63484;52.054;8.518;2023-07-02T23:52:37;12.70;;;3.45;;
65715;SDS011;63484;52.054;8.518;2023-07-02T23:57:40;8.93;;;3.78;;
